CheckWX is a tool to help pilots better visualize weather data.  It is not intended as a substitute for an official pre-flight weather briefing.

02:55:51 UTC

KDLS METAR
Columbia Gorge Regional / The Dalles Municipal Airport
The Dalles, Oregon, USA
Current

1 hour ago

KDLS 230153Z AUTO 33004KT 10SM BKN120 17/14 A2990 RMK AO2 SLP124 T01670144 $
Observed
Sep-23 @ 01:53 UTC
Wind
  • 330° at 4 KTS
Visibility
10 SM
Flight Rules
VFR
Cloud Levels
  • Broken at 12,000' AGL
Temperature
17°C / 63°F
Dewpoint
14°C / 57°F
Humidity
83%
Altimeter
29.9" Hg
Pressure
1012.52 hPa
Previous

2 hours ago

KDLS 230053Z AUTO 19003KT 10SM FEW080 BKN095 18/16 A2989 RMK AO2 RAE13 SLP121 P0001 T01780156 $
Observed
Sep-23 @ 00:53 UTC
Wind
  • 190° at 3 KTS
Visibility
10 SM
Flight Rules
VFR
Cloud Levels
  • Few at 8,000' AGL
  • Broken at 9,500' AGL
Temperature
18°C / 64°F
Dewpoint
16°C / 61°F
Humidity
88%
Altimeter
29.89" Hg
Pressure
1012.22 hPa
Current Rain
0.01"
Previous

3 hours ago

KDLS 222353Z AUTO 00000KT 10SM -RA FEW010 OVC090 18/16 A2989 RMK AO2 SLP120 P0002 60019 T01780156 10183 20167 50003 $
Observed
Sep-22 @ 23:53 UTC
Visibility
10 SM
Flight Rules
VFR
Conditions
Light Rain
Cloud Levels
  • Few at 1,000' AGL
  • Overcast at 9,000' AGL
Temperature
18°C / 64°F
Dewpoint
16°C / 61°F
Humidity
88%
Altimeter
29.89" Hg
Pressure
1012.22 hPa
Current Rain
0.02"